Time;durP1;ratioP1;P1;durP2;ratioP2;P2;SDS_P1;SDS_P2;PMS_P1;PMS_P2;Temp;Humidity;BMP_temperature;BMP_pressure;BME280_temperature;BME280_humidity;BME280_pressure;Samples;Min_cycle;Max_cycle;Signal;HPM_P1;HPM_P2
2022/10/27 00:00:43;;;;;;;26.45;14.98;;;;;;;11.15;100.00;99673.59;4408806;32;20169;-72
2022/10/27 00:03:11;;;;;;;28.50;14.82;;;;;;;11.18;100.00;99673.34;4405710;32;20098;-72
2022/10/27 00:05:43;;;;;;;28.40;15.50;;;;;;;11.18;100.00;99677.75;4393619;32;20082;-71
2022/10/27 00:08:15;;;;;;;26.50;14.27;;;;;;;11.14;100.00;99664.06;4402129;32;20172;-72
2022/10/27 00:10:43;;;;;;;29.90;16.15;;;;;;;11.12;100.00;99673.81;4408713;32;20107;-72
2022/10/27 00:13:12;;;;;;;25.95;13.73;;;;;;;11.07;100.00;99675.16;4408515;32;20110;-71
2022/10/27 00:15:40;;;;;;;27.45;14.20;;;;;;;11.00;100.00;99672.97;4408635;32;20139;-72
2022/10/27 00:18:09;;;;;;;26.05;14.43;;;;;;;10.87;100.00;99674.88;4408808;32;20167;-72
2022/10/27 00:20:37;;;;;;;25.10;14.40;;;;;;;10.80;100.00;99676.28;4408815;32;20098;-72
2022/10/27 00:23:04;;;;;;;25.83;14.32;;;;;;;10.76;100.00;99674.84;4408675;32;20090;-72
2022/10/27 00:25:31;;;;;;;27.17;13.80;;;;;;;10.81;100.00;99678.78;4408466;32;20116;-72
2022/10/27 00:27:58;;;;;;;25.65;13.93;;;;;;;10.81;100.00;99681.41;4408453;32;20437;-72
2022/10/27 00:30:25;;;;;;;25.42;14.45;;;;;;;10.75;100.00;99674.03;4408352;32;20115;-72
2022/10/27 00:32:53;;;;;;;24.73;13.77;;;;;;;10.76;100.00;99677.47;4408395;32;20120;-72
2022/10/27 00:35:21;;;;;;;28.67;15.25;;;;;;;10.70;100.00;99676.13;4408373;32;20122;-72
2022/10/27 00:37:48;;;;;;;25.90;15.07;;;;;;;10.71;100.00;99679.63;4408663;32;20120;-72
2022/10/27 00:40:15;;;;;;;31.10;15.52;;;;;;;10.70;100.00;99681.37;4408278;32;20133;-71
2022/10/27 00:42:43;;;;;;;29.42;15.77;;;;;;;10.73;100.00;99682.94;4408462;32;20113;-71
2022/10/27 00:45:10;;;;;;;29.67;15.52;;;;;;;10.73;100.00;99683.75;4408432;32;20113;-71
2022/10/27 00:47:37;;;;;;;29.45;16.12;;;;;;;10.76;100.00;99686.16;4408484;32;20172;-71
2022/10/27 00:50:08;;;;;;;31.30;16.65;;;;;;;10.80;100.00;99684.97;4408416;32;20118;-71
2022/10/27 00:52:40;;;;;;;32.03;15.85;;;;;;;10.82;100.00;99687.47;4408270;32;20086;-72
2022/10/27 00:55:15;;;;;;;33.10;16.08;;;;;;;10.78;100.00;99683.41;4408453;32;20200;-72
2022/10/27 00:57:43;;;;;;;35.83;16.62;;;;;;;10.82;100.00;99687.47;4394481;32;20082;-72
2022/10/27 01:00:11;;;;;;;29.52;15.55;;;;;;;10.78;100.00;99686.88;4394637;32;20173;-72
2022/10/27 01:02:38;;;;;;;31.85;15.75;;;;;;;10.85;100.00;99691.66;4394595;32;20598;-72
2022/10/27 01:05:10;;;;;;;29.00;15.57;;;;;;;10.87;100.00;99697.63;4393146;32;20094;-72
2022/10/27 01:07:38;;;;;;;32.28;15.85;;;;;;;10.89;100.00;99698.34;4383822;32;20212;-71
2022/10/27 01:10:05;;;;;;;35.65;17.08;;;;;;;10.86;100.00;99693.34;4408452;32;20086;-71
2022/10/27 01:12:32;;;;;;;29.45;15.23;;;;;;;10.81;100.00;99696.31;4394443;32;20090;-71
2022/10/27 01:15:00;;;;;;;28.00;14.70;;;;;;;10.82;100.00;99701.44;4408550;32;20074;-71
2022/10/27 01:17:54;;;;;;;33.88;17.02;;;;;;;10.83;100.00;99700.47;4408346;32;20398;-71
2022/10/27 01:20:24;;;;;;;34.95;17.33;;;;;;;10.87;100.00;99700.25;4394717;32;20174;-72
2022/10/27 01:23:10;;;;;;;38.70;18.45;;;;;;;10.87;100.00;99702.88;4408171;32;20165;-71
2022/10/27 01:25:56;;;;;;;41.00;17.92;;;;;;;10.88;100.00;99701.91;4394639;32;20116;-72
2022/10/27 01:28:49;;;;;;;37.40;18.98;;;;;;;10.85;100.00;99704.78;4408010;32;20094;-71
2022/10/27 01:31:19;;;;;;;34.45;16.67;;;;;;;10.91;100.00;99701.69;4408033;32;20145;-71
2022/10/27 01:34:12;;;;;;;34.50;18.15;;;;;;;10.87;100.00;99705.47;4408050;32;20098;-71
2022/10/27 01:36:39;;;;;;;36.38;17.30;;;;;;;10.93;100.00;99699.78;4401675;32;20106;-71
2022/10/27 01:39:15;;;;;;;39.95;18.77;;;;;;;10.89;100.00;99699.19;4408191;32;20129;-71
2022/10/27 01:41:46;;;;;;;33.58;16.98;;;;;;;10.94;100.00;99702.28;4394534;32;20191;-71
2022/10/27 01:44:23;;;;;;;34.28;16.30;;;;;;;10.96;100.00;99702.16;4394410;32;20137;-71
2022/10/27 01:46:52;;;;;;;38.88;17.60;;;;;;;10.94;100.00;99701.44;4394765;32;20090;-72
2022/10/27 01:49:19;;;;;;;36.40;18.70;;;;;;;10.96;100.00;99694.28;4394639;32;20128;-72
2022/10/27 01:51:48;;;;;;;39.42;18.87;;;;;;;10.94;100.00;99697.03;4408005;32;20399;-72
2022/10/27 01:54:17;;;;;;;38.03;18.15;;;;;;;11.01;100.00;99707.91;4408010;32;20468;-71
2022/10/27 01:56:50;;;;;;;40.38;17.55;;;;;;;10.98;100.00;99702.91;4408062;32;20086;-71
2022/10/27 01:59:41;;;;;;;33.88;17.45;;;;;;;10.97;100.00;99701.22;4408010;32;20440;-72
2022/10/27 02:02:33;;;;;;;40.15;19.48;;;;;;;10.95;100.00;99700.50;4394279;32;20212;-71
2022/10/27 02:05:05;;;;;;;34.92;17.70;;;;;;;10.99;100.00;99701.94;4347927;32;20660;-71
2022/10/27 02:07:55;;;;;;;37.05;17.75;;;;;;;10.99;100.00;99712.41;4343700;33;20167;-72
2022/10/27 02:10:26;;;;;;;37.33;17.73;;;;;;;10.98;100.00;99710.75;4342169;33;20243;-71
2022/10/27 02:12:54;;;;;;;37.75;17.45;;;;;;;10.97;100.00;99701.22;4333174;33;20562;-71
2022/10/27 02:15:30;;;;;;;37.30;17.65;;;;;;;10.95;100.00;99708.38;4333109;33;20100;-71
2022/10/27 02:18:02;;;;;;;34.25;17.17;;;;;;;10.86;100.00;99709.06;4345196;33;20454;-71
2022/10/27 02:20:33;;;;;;;37.35;17.95;;;;;;;10.80;100.00;99705.94;4345739;33;20167;-71
2022/10/27 02:23:06;;;;;;;40.30;18.35;;;;;;;10.75;100.00;99705.47;4333589;33;20170;-72
2022/10/27 02:25:59;;;;;;;39.97;17.52;;;;;;;10.72;100.00;99713.56;4345840;33;20116;-72
2022/10/27 02:28:40;;;;;;;40.40;17.70;;;;;;;10.73;100.00;99707.34;4301488;33;20107;-71
2022/10/27 02:31:08;;;;;;;40.85;18.62;;;;;;;10.67;100.00;99704.37;4301465;33;20632;-72
2022/10/27 02:33:36;;;;;;;39.88;18.27;;;;;;;10.65;100.00;99710.53;4301618;33;20653;-71
2022/10/27 02:36:04;;;;;;;36.53;18.05;;;;;;;10.62;100.00;99712.56;4301771;33;20124;-71
2022/10/27 02:38:31;;;;;;;38.08;18.62;;;;;;;10.58;100.00;99708.50;4301484;33;20111;-71
2022/10/27 02:40:58;;;;;;;40.97;19.02;;;;;;;10.50;100.00;99714.31;4302774;33;20143;-71
2022/10/27 02:43:25;;;;;;;68.65;20.27;;;;;;;10.50;100.00;99713.47;4345262;33;20312;-71
2022/10/27 02:45:52;;;;;;;89.45;20.67;;;;;;;10.47;100.00;99709.31;4345372;33;20673;-71
2022/10/27 02:48:19;;;;;;;73.50;19.12;;;;;;;10.51;100.00;99717.75;4345531;33;20124;-71
2022/10/27 02:50:46;;;;;;;66.95;19.70;;;;;;;10.54;100.00;99717.56;4332957;33;20286;-71
2022/10/27 02:53:13;;;;;;;38.35;17.70;;;;;;;10.54;100.00;99720.19;4345160;33;20214;-71
2022/10/27 02:55:41;;;;;;;40.97;19.75;;;;;;;10.50;100.00;99721.34;4345289;33;20123;-71
2022/10/27 02:58:08;;;;;;;42.70;19.00;;;;;;;10.56;100.00;99729.56;4345047;33;20096;-71
2022/10/27 03:00:35;;;;;;;42.33;18.60;;;;;;;10.57;100.00;99722.56;4345248;33;20108;-71
2022/10/27 03:03:02;;;;;;;48.08;20.02;;;;;;;10.59;100.00;99713.63;4344894;33;20499;-71
2022/10/27 03:05:29;;;;;;;45.45;20.00;;;;;;;10.61;100.00;99710.87;4366065;32;20102;-71
2022/10/27 03:07:56;;;;;;;45.17;20.12;;;;;;;10.61;100.00;99710.87;4399232;32;20148;-71
2022/10/27 03:10:24;;;;;;;47.67;20.80;;;;;;;10.64;100.00;99715.91;4407376;32;20126;-71
2022/10/27 03:12:51;;;;;;;43.83;19.45;;;;;;;10.65;100.00;99718.41;4407109;32;20120;-71
2022/10/27 03:15:20;;;;;;;40.50;18.83;;;;;;;10.71;100.00;99725.00;4407424;32;20153;-72
2022/10/27 03:17:47;;;;;;;44.30;19.98;;;;;;;10.79;100.00;99725.25;4407362;32;20211;-72
2022/10/27 03:20:15;;;;;;;40.97;18.98;;;;;;;10.81;100.00;99728.59;4407238;32;20157;-72
2022/10/27 03:22:42;;;;;;;47.60;19.90;;;;;;;10.83;100.00;99731.94;4407347;32;20345;-71
2022/10/27 03:25:10;;;;;;;46.37;20.60;;;;;;;10.81;100.00;99733.03;4407146;32;20094;-72
2022/10/27 03:27:39;;;;;;;45.80;20.33;;;;;;;10.82;100.00;99735.53;4407251;32;20109;-71
2022/10/27 03:30:07;;;;;;;47.83;20.35;;;;;;;10.80;100.00;99736.56;4406060;32;20090;-72
2022/10/27 03:32:34;;;;;;;45.95;20.98;;;;;;;10.84;100.00;99738.03;4407440;32;20451;-71
2022/10/27 03:35:01;;;;;;;45.17;20.08;;;;;;;10.91;100.00;99743.63;4406814;32;20102;-72
2022/10/27 03:37:28;;;;;;;44.13;20.62;;;;;;;10.96;100.00;99725.75;4407149;32;20137;-71
2022/10/27 03:39:55;;;;;;;38.78;19.35;;;;;;;10.99;100.00;99728.16;4407019;32;20125;-71
2022/10/27 03:42:22;;;;;;;43.80;20.23;;;;;;;11.01;100.00;99739.38;4406915;32;20169;-72
2022/10/27 03:44:49;;;;;;;45.92;20.42;;;;;;;10.97;100.00;99744.00;4406873;32;20120;-72
2022/10/27 03:47:17;;;;;;;40.92;20.17;;;;;;;11.00;100.00;99732.44;4406937;32;20176;-72
2022/10/27 03:49:44;;;;;;;41.30;20.30;;;;;;;11.03;100.00;99737.47;4406774;32;20102;-72
2022/10/27 03:52:11;;;;;;;41.90;20.20;;;;;;;11.05;100.00;99732.94;4406812;32;20090;-72
2022/10/27 03:54:38;;;;;;;42.65;19.77;;;;;;;11.00;100.00;99738.50;4406770;32;20153;-71
2022/10/27 03:57:05;;;;;;;45.72;20.17;;;;;;;11.00;100.00;99749.00;4406806;32;20150;-71
2022/10/27 03:59:32;;;;;;;38.00;18.30;;;;;;;10.98;100.00;99743.06;4406888;32;20118;-72
2022/10/27 04:01:59;;;;;;;42.03;20.08;;;;;;;11.01;100.00;99742.00;4406568;32;20160;-72
2022/10/27 04:04:32;;;;;;;41.50;19.23;;;;;;;11.04;100.00;99744.38;4394792;32;20169;-72
2022/10/27 04:06:59;;;;;;;43.15;19.75;;;;;;;11.12;100.00;99742.00;4392485;32;20103;-72
2022/10/27 04:09:26;;;;;;;39.30;17.87;;;;;;;11.14;100.00;99741.87;4406574;32;20494;-72
2022/10/27 04:11:53;;;;;;;40.33;19.00;;;;;;;11.12;100.00;99746.41;4406326;32;20154;-72
2022/10/27 04:14:20;;;;;;;36.08;18.65;;;;;;;11.08;100.00;99745.84;4406109;32;20094;-71
2022/10/27 04:16:50;;;;;;;38.92;17.73;;;;;;;11.02;100.00;99762.00;4406811;32;20161;-72
2022/10/27 04:19:18;;;;;;;37.67;18.40;;;;;;;11.01;100.00;99755.09;4406492;32;20432;-71
2022/10/27 04:21:45;;;;;;;36.42;18.50;;;;;;;11.00;100.00;99763.91;4399817;32;20177;-72
2022/10/27 04:24:13;;;;;;;34.35;17.33;;;;;;;11.01;100.00;99752.47;4401830;32;20102;-71
2022/10/27 04:26:40;;;;;;;35.80;17.08;;;;;;;11.00;100.00;99763.91;4390183;32;20585;-72
2022/10/27 04:29:07;;;;;;;35.30;17.70;;;;;;;11.01;100.00;99765.59;4404036;32;20153;-72
2022/10/27 04:31:34;;;;;;;36.42;17.27;;;;;;;10.99;100.00;99762.22;4403744;32;20102;-71
2022/10/27 04:34:01;;;;;;;38.55;18.33;;;;;;;11.02;100.00;99769.88;4403847;32;20118;-72
2022/10/27 04:36:29;;;;;;;34.33;17.52;;;;;;;11.01;100.00;99771.66;4404117;32;20156;-72
2022/10/27 04:38:56;;;;;;;38.20;17.87;;;;;;;11.05;100.00;99772.25;4403941;32;20119;-72
2022/10/27 04:41:23;;;;;;;36.33;17.87;;;;;;;11.06;100.00;99773.94;4404073;32;20094;-72
2022/10/27 04:43:50;;;;;;;35.65;17.65;;;;;;;11.08;100.00;99777.31;4405995;32;20097;-71
2022/10/27 04:46:23;;;;;;;36.47;18.05;;;;;;;11.08;100.00;99782.53;4404272;32;20098;-72
2022/10/27 04:48:50;;;;;;;32.47;16.60;;;;;;;11.11;100.00;99782.31;4400370;32;20109;-71
2022/10/27 04:51:17;;;;;;;35.60;17.52;;;;;;;11.01;100.00;99782.16;4392512;32;20132;-72
2022/10/27 04:53:49;;;;;;;39.75;18.10;;;;;;;10.96;100.00;99786.91;4392904;32;20456;-71
2022/10/27 04:56:16;;;;;;;30.83;16.35;;;;;;;10.91;100.00;99785.56;4392380;32;20116;-70
2022/10/27 04:58:43;;;;;;;35.60;18.62;;;;;;;10.91;100.00;99785.56;4392584;32;20125;-71
2022/10/27 05:01:12;;;;;;;39.08;18.37;;;;;;;10.88;100.00;99789.25;4392994;32;20106;-72
2022/10/27 05:03:39;;;;;;;34.38;17.40;;;;;;;10.86;100.00;99806.88;4399048;32;20098;-72
2022/10/27 05:06:06;;;;;;;33.67;17.00;;;;;;;10.71;100.00;99808.84;4402177;32;20460;-72
2022/10/27 05:08:34;;;;;;;33.63;17.27;;;;;;;10.72;100.00;99810.53;4404669;32;20129;-72
2022/10/27 05:11:01;;;;;;;36.17;17.35;;;;;;;10.68;100.00;99810.87;4400509;32;20141;-72
2022/10/27 05:13:28;;;;;;;61.97;17.05;;;;;;;10.62;100.00;99809.53;4400415;32;20130;-72
2022/10/27 05:16:02;;;;;;;102.60;19.55;;;;;;;10.62;100.00;99805.09;4406374;32;20486;-72
2022/10/27 05:18:29;;;;;;;139.98;19.00;;;;;;;10.68;100.00;99795.97;4406557;32;20168;-72
2022/10/27 05:20:56;;;;;;;120.18;18.77;;;;;;;10.75;100.00;99797.19;4393564;32;20601;-72
2022/10/27 05:23:24;;;;;;;130.05;19.08;;;;;;;10.80;100.00;99805.56;4407311;32;20102;-73
2022/10/27 05:25:54;;;;;;;233.30;20.40;;;;;;;10.80;100.00;99800.31;4393862;32;20098;-73
2022/10/27 05:28:22;;;;;;;254.40;20.48;;;;;;;10.75;100.00;99807.69;4403943;32;20118;-73
2022/10/27 05:30:50;;;;;;;225.87;19.48;;;;;;;10.82;100.00;99813.31;4400998;32;20158;-72
2022/10/27 05:33:17;;;;;;;257.15;21.30;;;;;;;10.80;100.00;99821.28;4403589;32;20506;-73
2022/10/27 05:35:44;;;;;;;345.67;25.50;;;;;;;10.84;100.00;99814.03;4406892;32;20158;-72
2022/10/27 05:38:12;;;;;;;302.75;23.23;;;;;;;10.93;100.00;99815.12;4405232;32;20448;-72
2022/10/27 05:40:39;;;;;;;425.73;27.85;;;;;;;11.00;100.00;99818.97;4407726;32;20097;-72
2022/10/27 05:43:06;;;;;;;174.18;22.73;;;;;;;11.01;100.00;99818.87;4403914;32;20114;-73
2022/10/27 05:45:33;;;;;;;150.35;18.30;;;;;;;11.04;100.00;99825.66;4390983;32;20086;-72
2022/10/27 05:48:03;;;;;;;299.75;21.58;;;;;;;11.10;100.00;99825.22;4394205;32;20102;-72
2022/10/27 05:50:32;;;;;;;163.37;18.85;;;;;;;11.03;100.00;99834.47;4393035;32;20118;-72
2022/10/27 05:52:59;;;;;;;198.93;21.55;;;;;;;11.12;100.00;99825.94;4402571;32;20125;-72
2022/10/27 05:55:27;;;;;;;126.78;18.10;;;;;;;11.21;100.00;99834.06;4398161;32;22271;-72
2022/10/27 05:57:56;;;;;;;54.58;16.73;;;;;;;11.27;100.00;99836.22;4404319;32;83863;-73
2022/10/27 06:00:25;;;;;;;68.37;17.25;;;;;;;11.36;100.00;99832.91;4402266;32;20119;-73
2022/10/27 06:02:56;;;;;;;57.30;16.85;;;;;;;11.31;100.00;99833.25;4393250;32;20514;-74
2022/10/27 06:05:24;;;;;;;54.40;18.90;;;;;;;11.38;100.00;99838.88;4403964;32;20110;-72
2022/10/27 06:07:51;;;;;;;31.98;15.30;;;;;;;11.38;100.00;99841.50;4399785;32;20125;-73
2022/10/27 06:10:19;;;;;;;37.95;16.05;;;;;;;11.30;100.00;99843.88;4400547;32;20109;-73
2022/10/27 06:12:46;;;;;;;32.53;15.95;;;;;;;11.35;100.00;99847.84;4399334;32;20149;-72
2022/10/27 06:15:14;;;;;;;33.92;16.90;;;;;;;11.38;100.00;99851.16;4402263;32;20159;-73
2022/10/27 06:17:42;;;;;;;32.30;16.33;;;;;;;11.47;100.00;99855.72;4397164;32;20138;-72
2022/10/27 06:20:09;;;;;;;29.73;15.85;;;;;;;11.62;100.00;99859.78;4399482;32;20121;-72
2022/10/27 06:22:36;;;;;;;31.40;16.40;;;;;;;11.66;100.00;99847.28;4403225;32;20140;-73
2022/10/27 06:25:04;;;;;;;33.50;16.55;;;;;;;11.74;100.00;99857.19;4403071;32;20639;-75
2022/10/27 06:27:31;;;;;;;31.95;15.85;;;;;;;11.79;100.00;99858.50;4399152;32;20110;-73
2022/10/27 06:29:58;;;;;;;61.30;16.45;;;;;;;11.83;100.00;99864.37;4395040;32;20110;-74
2022/10/27 06:32:25;;;;;;;182.93;20.00;;;;;;;11.85;100.00;99859.81;4403078;32;20113;-73
2022/10/27 06:34:52;;;;;;;134.82;19.45;;;;;;;11.72;100.00;99865.19;4402383;32;20089;-72
2022/10/27 06:37:19;;;;;;;68.85;16.40;;;;;;;11.77;100.00;99867.47;4401424;32;20487;-71
2022/10/27 06:39:47;;;;;;;49.28;16.70;;;;;;;11.85;100.00;99871.19;4396235;32;20598;-73
2022/10/27 06:42:14;;;;;;;46.22;18.55;;;;;;;11.85;100.00;99873.81;4404023;32;20127;-73
2022/10/27 06:44:41;;;;;;;37.55;15.77;;;;;;;11.95;100.00;99878.37;4399931;32;20158;-71
2022/10/27 06:47:09;;;;;;;31.48;15.02;;;;;;;12.05;100.00;99882.78;4396727;32;20102;-72
2022/10/27 06:49:36;;;;;;;31.27;15.80;;;;;;;12.10;100.00;99890.31;4399224;32;20113;-73
2022/10/27 06:52:03;;;;;;;40.60;15.32;;;;;;;11.92;100.00;99887.28;4399635;32;20116;-72
2022/10/27 06:54:30;;;;;;;47.95;14.82;;;;;;;11.99;100.00;99885.03;4396254;32;20949;-71
2022/10/27 06:56:57;;;;;;;93.55;16.15;;;;;;;12.11;100.00;99884.09;4396389;32;20463;-73
2022/10/27 06:59:24;;;;;;;92.05;17.40;;;;;;;12.19;100.00;99886.97;4391060;32;20116;-74
2022/10/27 07:01:52;;;;;;;81.90;15.55;;;;;;;12.22;100.00;99886.72;4402556;32;20106;-73
2022/10/27 07:04:19;;;;;;;41.75;15.43;;;;;;;12.31;100.00;99887.81;4404305;32;20090;-72
2022/10/27 07:06:46;;;;;;;57.33;17.15;;;;;;;12.45;100.00;99894.59;4397244;32;20128;-72
2022/10/27 07:09:13;;;;;;;62.78;15.80;;;;;;;12.52;100.00;99900.19;4402047;32;20201;-72
2022/10/27 07:11:40;;;;;;;60.22;15.23;;;;;;;12.59;100.00;99904.00;4401967;32;20102;-72
2022/10/27 07:14:07;;;;;;;49.10;15.82;;;;;;;12.60;100.00;99905.69;4404423;32;20094;-76
2022/10/27 07:16:35;;;;;;;37.50;14.93;;;;;;;12.75;100.00;99912.34;4404518;32;20145;-74
2022/10/27 07:19:02;;;;;;;72.25;15.68;;;;;;;12.94;100.00;99906.44;4403958;32;20089;-73
2022/10/27 07:21:29;;;;;;;61.55;16.17;;;;;;;13.08;100.00;99912.38;4401780;32;20127;-72
2022/10/27 07:23:56;;;;;;;41.67;15.35;;;;;;;13.24;100.00;99911.97;4399870;32;20101;-73
2022/10/27 07:26:23;;;;;;;36.45;14.18;;;;;;;13.30;100.00;99906.19;4401600;32;20564;-72
2022/10/27 07:28:50;;;;;;;25.88;13.07;;;;;;;13.43;100.00;99908.66;4399813;32;20191;-71
2022/10/27 07:31:18;;;;;;;26.50;14.93;;;;;;;13.45;100.00;99912.84;4401264;32;20102;-72
2022/10/27 07:33:45;;;;;;;28.85;15.65;;;;;;;13.29;100.00;99918.53;4403394;32;20090;-70
2022/10/27 07:36:12;;;;;;;27.77;15.02;;;;;;;13.41;100.00;99924.56;4401139;32;20121;-71
2022/10/27 07:38:39;;;;;;;27.85;15.52;;;;;;;13.62;100.00;99929.84;4401133;32;20255;-71
2022/10/27 07:41:06;;;;;;;28.87;15.40;;;;;;;13.86;100.00;99934.03;4398804;32;20120;-70
2022/10/27 07:43:35;;;;;;;26.35;14.18;;;;;;;13.93;100.00;99943.09;4401333;32;20158;-71
2022/10/27 07:46:03;;;;;;;28.60;14.43;;;;;;;13.99;100.00;99941.75;4400821;32;20787;-69
2022/10/27 07:48:30;;;;;;;25.37;14.32;;;;;;;14.17;100.00;99950.72;4404166;32;20110;-71
2022/10/27 07:50:57;;;;;;;26.90;15.57;;;;;;;14.25;100.00;99942.16;4404906;32;20428;-70
2022/10/27 07:53:24;;;;;;;37.42;15.43;;;;;;;14.11;100.00;99945.97;4405357;32;20529;-72
2022/10/27 07:55:51;;;;;;;43.22;15.60;;;;;;;14.12;100.00;99952.06;4404006;32;20106;-70
2022/10/27 07:58:18;;;;;;;31.00;15.32;;;;;;;14.08;100.00;99953.28;4398186;32;20095;-71
2022/10/27 08:00:47;;;;;;;29.63;14.20;;;;;;;14.14;100.00;99963.31;4400132;32;20443;-70
2022/10/27 08:03:17;;;;;;;31.40;15.23;;;;;;;14.12;100.00;99970.53;4400830;32;20479;-71
2022/10/27 08:05:45;;;;;;;29.75;15.18;;;;;;;14.19;100.00;99971.69;4402286;32;20098;-72
2022/10/27 08:08:14;;;;;;;26.17;14.45;;;;;;;14.13;100.00;99980.09;4401966;32;20473;-71
2022/10/27 08:10:42;;;;;;;28.98;15.07;;;;;;;14.05;100.00;99974.62;4398116;32;20208;-71
2022/10/27 08:13:10;;;;;;;26.23;15.07;;;;;;;14.14;100.00;99973.84;4398194;32;20154;-70
2022/10/27 08:15:39;;;;;;;27.90;15.48;;;;;;;14.07;100.00;99978.00;4397292;32;20827;-71
2022/10/27 08:18:07;;;;;;;26.80;14.90;;;;;;;13.90;100.00;99984.66;4395981;32;20128;-70
2022/10/27 08:20:37;;;;;;;29.75;16.05;;;;;;;13.80;100.00;99987.25;4404328;32;20145;-70
2022/10/27 08:23:08;;;;;;;28.33;15.35;;;;;;;13.95;100.00;99991.22;4395198;32;22020;-71
2022/10/27 08:25:35;;;;;;;26.48;15.23;;;;;;;13.96;100.00;99987.63;4387511;32;20098;-74
2022/10/27 08:28:03;;;;;;;27.98;16.30;;;;;;;14.00;100.00;99990.84;4403205;32;20955;-74
2022/10/27 08:30:31;;;;;;;27.33;15.23;;;;;;;14.12;100.00;99991.59;4398894;32;20226;-74
2022/10/27 08:33:02;;;;;;;29.52;15.95;;;;;;;14.14;100.00;99997.56;4400564;32;20098;-73
2022/10/27 08:35:31;;;;;;;33.10;15.63;;;;;;;14.16;100.00;100006.19;4399060;32;20446;-73
2022/10/27 08:37:59;;;;;;;29.48;16.50;;;;;;;14.15;100.00;99999.25;4400616;32;20528;-73
2022/10/27 08:41:14;;;;;;;30.52;15.55;;;;;;;14.45;100.00;100000.25;4399706;32;20164;-74
2022/10/27 08:44:15;;;;;;;26.10;15.18;;;;;;;14.28;100.00;100002.53;4348562;32;20114;-74
2022/10/27 08:46:50;;;;;;;29.17;14.93;;;;;;;14.40;100.00;99999.78;4356884;32;20149;-74
2022/10/27 08:52:50;;;;;;;26.60;14.60;;;;;;;14.67;100.00;100000.09;4316740;33;20818;-71
2022/10/27 08:55:28;;;;;;;24.87;13.80;;;;;;;14.65;100.00;99998.53;4312292;33;20160;-73
2022/10/27 08:58:02;;;;;;;22.62;13.55;;;;;;;14.53;100.00;100000.41;4326706;33;20187;-74
2022/10/27 09:00:36;;;;;;;26.62;14.50;;;;;;;14.50;100.00;100001.53;4320910;33;20120;-74
2022/10/27 09:03:42;;;;;;;28.42;14.48;;;;;;;14.54;100.00;100002.09;4315507;33;20123;-74
2022/10/27 09:06:24;;;;;;;25.48;14.10;;;;;;;14.73;100.00;100002.19;4312655;33;20564;-74
2022/10/27 09:09:05;;;;;;;27.15;14.87;;;;;;;14.89;100.00;100000.84;4315986;33;20113;-74
2022/10/27 09:11:38;;;;;;;25.20;13.88;;;;;;;14.79;100.00;100002.63;4313164;33;20271;-74
2022/10/27 09:14:26;;;;;;;28.75;15.23;;;;;;;14.68;100.00;100004.38;4311642;33;20120;-74
2022/10/27 09:17:00;;;;;;;30.02;15.55;;;;;;;14.77;100.00;100002.75;4323816;32;20202;-74
2022/10/27 09:19:37;;;;;;;27.92;15.30;;;;;;;15.08;100.00;100005.34;4353893;32;20107;-74
2022/10/27 09:22:06;;;;;;;27.62;15.45;;;;;;;15.16;100.00;100008.12;4338421;32;20150;-73
2022/10/27 09:24:36;;;;;;;24.63;14.55;;;;;;;15.32;100.00;100002.34;4351837;32;20095;-73
2022/10/27 09:27:03;;;;;;;27.08;14.45;;;;;;;15.26;100.00;100006.34;4333469;32;20162;-73
2022/10/27 09:29:35;;;;;;;24.70;13.90;;;;;;;15.28;100.00;100006.22;4373338;32;20173;-74
2022/10/27 09:32:11;;;;;;;24.77;14.73;;;;;;;15.24;100.00;100008.28;4389822;32;20124;-73
2022/10/27 09:35:13;;;;;;;27.13;14.65;;;;;;;15.44;100.00;100001.22;4399797;32;20148;-76
2022/10/27 09:37:44;;;;;;;25.40;13.50;;;;;;;15.72;100.00;100009.28;4393391;32;20098;-77
2022/10/27 09:40:22;;;;;;;25.83;14.57;;;;;;;16.00;100.00;100012.06;4398614;32;20118;-77
2022/10/27 09:42:54;;;;;;;29.87;16.85;;;;;;;16.24;100.00;100005.50;4385131;32;20149;-75
2022/10/27 09:45:23;;;;;;;29.37;15.52;;;;;;;16.25;100.00;100004.53;4404439;32;20098;-74
2022/10/27 09:47:53;;;;;;;25.98;14.38;;;;;;;16.37;100.00;99999.91;4403103;32;20117;-74
2022/10/27 09:50:28;;;;;;;25.77;16.23;;;;;;;16.14;100.00;99998.41;4385235;32;20114;-75
2022/10/27 09:52:55;;;;;;;33.38;15.45;;;;;;;16.15;100.00;100004.53;4381352;32;20148;-73
2022/10/27 09:55:46;;;;;;;25.90;14.35;;;;;;;16.08;100.00;100014.84;4394262;32;20148;-73
2022/10/27 09:58:13;;;;;;;25.40;14.63;;;;;;;16.24;100.00;100002.84;4398027;32;20153;-74
2022/10/27 10:00:41;;;;;;;26.62;15.18;;;;;;;16.25;100.00;100001.88;4396236;32;20526;-74
2022/10/27 10:03:18;;;;;;;27.58;15.82;;;;;;;16.44;100.00;100003.63;4382710;32;20476;-75
2022/10/27 10:05:59;;;;;;;27.37;15.32;;;;;;;16.26;100.00;100006.16;4390454;32;20187;-74
2022/10/27 10:08:29;;;;;;;26.17;14.98;;;;;;;16.17;100.00;100007.88;4404531;32;20125;-74
2022/10/27 10:10:57;;;;;;;27.17;15.35;;;;;;;16.43;100.00;100008.06;4398027;32;20154;-73
2022/10/27 10:13:25;;;;;;;26.67;14.68;;;;;;;16.59;100.00;100015.38;4399773;32;20625;-72
2022/10/27 10:16:08;;;;;;;27.23;15.05;;;;;;;16.60;100.00;100016.25;4401988;32;20209;-74
2022/10/27 10:18:37;;;;;;;25.37;15.57;;;;;;;16.47;100.00;100014.75;4400123;32;20099;-75
2022/10/27 10:21:07;;;;;;;32.15;15.65;;;;;;;16.56;100.00;100015.69;4378533;32;20114;-76
2022/10/27 10:23:55;;;;;;;30.02;15.48;;;;;;;16.60;100.00;100011.78;4400452;32;20145;-74
2022/10/27 10:26:24;;;;;;;31.87;16.92;;;;;;;16.87;100.00;100012.81;4405526;32;20213;-74
2022/10/27 10:28:54;;;;;;;28.77;15.95;;;;;;;17.05;100.00;100015.50;4405711;32;20148;-73
2022/10/27 10:31:28;;;;;;;30.25;16.80;;;;;;;17.10;100.00;100018.53;4397087;32;20127;-75
2022/10/27 10:34:03;;;;;;;30.67;17.55;;;;;;;16.70;100.00;100019.69;4400492;32;20169;-74
2022/10/27 10:36:38;;;;;;;37.03;19.30;;;;;;;16.32;100.00;100006.44;4406883;32;20106;-74
2022/10/27 10:39:26;;;;;;;35.85;17.77;;;;;;;16.00;100.00;100012.06;4398870;32;20557;-73
2022/10/27 10:42:08;;;;;;;33.38;17.67;;;;;;;16.40;100.00;100007.53;4395039;32;20741;-74
2022/10/27 10:44:36;;;;;;;33.28;17.60;;;;;;;16.48;100.00;100000.53;4398552;32;20121;-73
2022/10/27 10:47:05;;;;;;;30.90;17.95;;;;;;;16.75;100.00;100001.53;4399228;32;20399;-73
2022/10/27 10:49:36;;;;;;;29.77;16.37;;;;;;;17.03;100.00;100006.84;4398422;32;20108;-74
2022/10/27 10:52:16;;;;;;;32.28;17.37;;;;;;;17.22;100.00;100005.09;4397237;32;20484;-74
2022/10/27 10:54:44;;;;;;;35.15;17.85;;;;;;;17.15;100.00;100002.19;4400517;32;20655;-74
2022/10/27 10:57:34;;;;;;;30.15;16.77;;;;;;;16.89;100.00;100008.19;4402838;32;20102;-73
2022/10/27 11:00:04;;;;;;;31.58;16.67;;;;;;;17.08;100.00;100006.41;4383388;32;20095;-74
2022/10/27 11:02:32;;;;;;;27.23;16.15;;;;;;;17.29;100.00;100009.63;4385026;32;20106;-74
2022/10/27 11:05:17;;;;;;;27.35;15.82;;;;;;;17.12;100.00;100013.94;4384940;32;20161;-74
2022/10/27 11:07:45;;;;;;;28.65;16.67;;;;;;;17.19;100.00;99999.09;4388489;32;20479;-74
2022/10/27 11:10:26;;;;;;;27.80;15.48;;;;;;;17.04;100.00;100011.19;4401870;32;20129;-74
2022/10/27 11:13:15;;;;;;;26.87;15.55;;;;;;;17.27;100.00;100011.56;4397570;32;20106;-74
2022/10/27 11:15:54;;;;;;;26.65;15.57;;;;;;;17.20;100.00;100006.06;4396313;32;20156;-72
2022/10/27 11:18:24;;;;;;;26.17;14.80;;;;;;;16.84;100.00;100003.31;4397040;32;20207;-74
2022/10/27 11:21:15;;;;;;;25.00;14.98;;;;;;;16.78;100.00;100003.91;4385360;32;20097;-74
2022/10/27 11:23:48;;;;;;;24.73;14.10;;;;;;;16.68;100.00;100005.75;4399848;32;20513;-73
2022/10/27 11:26:19;;;;;;;29.45;15.02;;;;;;;16.47;100.00;100009.47;4384587;32;20133;-76